Language: 


Des rapports , des résumés tant et plus, au choix de chacun....


Données statistiques de la station
Quotidien Rapport Avril 25, 2017 Unités:  Métrique    Anglais   les deux
« Précédent Jour
Suivant Jour »
Quotidien Hebdomadaire Mensuel Annuel Actuel
  Haut: Bas: Moyen:
Température: 13.8 °C 0.0 °C 8.3 °C
Pt de rosée: 7.0 °C -7.0 °C -0.3 °C
Humidité: 92 % 0 % 55 %
Vitesse du vent: 23.3 km/h 0.0 km/h 7.4 km/h
Rafales: 25.3 km/h - -
Vent:- - West
Pression: 1012.1 hPa 0.0 hPa -
Précipitation: 0.0 mm    
Historical Graphs
 
 
Données statistiques pour Avril 25, 2017
Heure Température Point de rosée Pression Vent Vitesse du vent Refales Humidité Pluie (taux horaire)
00:03 9.2 °C 7.0 °C 1008.0 hPa North 9.7 km/h 18.0 km/h 86 % 0.0 mm
00:08 9.1 °C 7.0 °C 1008.0 hPa NNE 6.4 km/h 18.0 km/h 86 % 0.0 mm
00:13 9.0 °C 7.0 °C 1008.0 hPa NNW 5.0 km/h 11.9 km/h 87 % 0.0 mm
00:18 8.9 °C 7.0 °C 1008.0 hPa NNW 6.4 km/h 11.9 km/h 87 % 0.0 mm
00:23 8.9 °C 7.0 °C 1009.0 hPa NNW 3.5 km/h 10.5 km/h 88 % 0.0 mm
00:28 8.8 °C 7.0 °C 1009.0 hPa North 11.9 km/h 11.9 km/h 88 % 0.0 mm
00:34 8.8 °C 7.0 °C 1009.0 hPa NW 5.0 km/h 11.9 km/h 88 % 0.0 mm
00:39 8.8 °C 7.0 °C 1009.0 hPa North 1.8 km/h 7.6 km/h 88 % 0.0 mm
00:44 8.7 °C 7.0 °C 1009.0 hPa North 9.7 km/h 9.7 km/h 88 % 0.0 mm
00:49 8.7 °C 7.0 °C 1009.0 hPa WNW 5.8 km/h 9.7 km/h 89 % 0.0 mm
00:54 8.6 °C 7.0 °C 1009.0 hPa Calm   9.7 km/h 89 % 0.0 mm
00:59 8.6 °C 7.0 °C 1009.0 hPa Calm   9.7 km/h 89 % 0.0 mm
01:04 8.6 °C 7.0 °C 1009.0 hPa Calm   5.8 km/h 89 % 0.0 mm
01:09 8.5 °C 7.0 °C 1009.0 hPa NE 1.4 km/h 5.8 km/h 90 % 0.0 mm
01:14 8.5 °C 7.0 °C 1009.0 hPa WNW 1.8 km/h 5.0 km/h 90 % 0.0 mm
01:19 8.5 °C 7.0 °C 1009.0 hPa Calm   4.7 km/h 90 % 0.0 mm
01:24 8.5 °C 7.0 °C 1009.0 hPa West 2.1 km/h 5.0 km/h 90 % 0.0 mm
01:29 8.4 °C 7.0 °C 1009.0 hPa WSW 4.0 km/h 5.0 km/h 90 % 0.0 mm
01:34 8.4 °C 7.0 °C 1009.0 hPa West 6.4 km/h 7.6 km/h 90 % 0.0 mm
01:39 8.4 °C 7.0 °C 1009.0 hPa West 6.1 km/h 7.6 km/h 90 % 0.0 mm
01:44 8.4 °C 7.0 °C 1009.0 hPa West 5.5 km/h 6.9 km/h 90 % 0.0 mm
01:49 8.3 °C 7.0 °C 1009.0 hPa West 4.7 km/h 6.9 km/h 90 % 0.0 mm
01:54 8.3 °C 7.0 °C 1009.0 hPa West 4.0 km/h 6.9 km/h 90 % 0.0 mm
01:59 8.3 °C 7.0 °C 1009.0 hPa WSW 4.7 km/h 6.9 km/h 91 % 0.0 mm
02:04 8.3 °C 7.0 °C 1009.0 hPa Calm   6.9 km/h 91 % 0.0 mm
02:09 8.3 °C 7.0 °C 1009.0 hPa West 6.9 km/h 9.0 km/h 91 % 0.0 mm
02:14 8.3 °C 7.0 °C 1009.0 hPa West 9.3 km/h 10.5 km/h 91 % 0.0 mm
02:19 8.3 °C 7.0 °C 1009.0 hPa West 5.5 km/h 10.5 km/h 92 % 0.0 mm
02:24 8.3 °C 7.0 °C 1009.0 hPa WNW 5.0 km/h 14.0 km/h 92 % 0.0 mm
02:30 8.3 °C 7.0 °C 1009.0 hPa West 8.7 km/h 14.0 km/h 92 % 0.0 mm
02:35 8.2 °C 7.0 °C 1009.0 hPa NNW 5.5 km/h 13.7 km/h 90 % 0.0 mm
02:40 8.2 °C 6.0 °C 1009.0 hPa North 15.8 km/h 16.3 km/h 83 % 0.0 mm
02:45 8.0 °C 5.0 °C 1009.0 hPa WNW 12.6 km/h 16.3 km/h 78 % 0.0 mm
02:50 8.0 °C 4.0 °C 1009.0 hPa NNW 6.4 km/h 17.2 km/h 76 % 0.0 mm
02:55 7.9 °C 4.0 °C 1009.0 hPa WNW 8.7 km/h 17.2 km/h 75 % 0.0 mm
03:00 7.8 °C 3.0 °C 1009.0 hPa WNW 6.4 km/h 15.4 km/h 74 % 0.0 mm
03:05 7.7 °C 3.0 °C 1009.0 hPa NNW 5.5 km/h 15.4 km/h 71 % 0.0 mm
03:10 7.7 °C 3.0 °C 1009.0 hPa NW 11.1 km/h 14.8 km/h 71 % 0.0 mm
04:37 0.0 °C 2.0 °C 0.0 hPa Calm     0 % 0.0 mm
04:42 6.3 °C 0.0 °C 1010.0 hPa Calm   10.1 km/h 62 % 0.0 mm
04:47 6.2 °C -1.0 °C 1010.0 hPa NNW 6.4 km/h 16.6 km/h 61 % 0.0 mm
04:52 6.1 °C -1.0 °C 1009.0 hPa West 8.7 km/h 16.6 km/h 61 % 0.0 mm
04:57 6.1 °C -1.0 °C 1009.0 hPa West 5.8 km/h 13.7 km/h 61 % 0.0 mm
05:02 6.0 °C -1.0 °C 1009.0 hPa NNE 5.0 km/h 14.0 km/h 60 % 0.0 mm
05:07 5.8 °C -1.0 °C 1008.0 hPa North 5.8 km/h 14.0 km/h 61 % 0.0 mm
05:11 5.7 °C -1.0 °C 1008.0 hPa NNW 4.0 km/h 13.0 km/h 61 % 0.0 mm
05:17 5.6 °C -1.0 °C 1008.0 hPa South 1.4 km/h 13.0 km/h 61 % 0.0 mm
05:22 5.5 °C -1.0 °C 1008.0 hPa NNW 5.8 km/h 19.1 km/h 61 % 0.0 mm
05:27 5.4 °C -1.0 °C 1008.0 hPa WNW 3.5 km/h 19.1 km/h 61 % 0.0 mm
05:32 5.3 °C -1.0 °C 1008.0 hPa NW 2.6 km/h 11.6 km/h 60 % 0.0 mm
05:37 5.3 °C -1.0 °C 1008.0 hPa NE 4.0 km/h 10.5 km/h 60 % 0.0 mm
05:42 5.2 °C -2.0 °C 1008.0 hPa WNW 9.7 km/h 11.1 km/h 60 % 0.0 mm
05:47 5.1 °C -2.0 °C 1008.0 hPa WNW 6.1 km/h 11.1 km/h 61 % 0.0 mm
05:52 5.0 °C -2.0 °C 1008.0 hPa West 4.3 km/h 10.5 km/h 61 % 0.0 mm
05:57 4.9 °C -2.0 °C 1008.0 hPa West 9.7 km/h 13.0 km/h 62 % 0.0 mm
06:02 4.8 °C -2.0 °C 1008.0 hPa NNW 3.2 km/h 13.0 km/h 62 % 0.0 mm
06:07 4.7 °C -2.0 °C 1008.0 hPa WNW 4.7 km/h 12.2 km/h 63 % 0.0 mm
06:12 4.6 °C -2.0 °C 1008.0 hPa ENE 2.6 km/h 9.7 km/h 63 % 0.0 mm
06:17 4.6 °C -2.0 °C 1008.0 hPa West 4.3 km/h 9.7 km/h 63 % 0.0 mm
06:22 4.5 °C -2.0 °C 1009.0 hPa NNW 5.8 km/h 8.7 km/h 63 % 0.0 mm
06:27 4.5 °C -1.0 °C 1009.0 hPa WNW 2.6 km/h 10.1 km/h 64 % 0.0 mm
06:32 4.4 °C -2.0 °C 1009.0 hPa West 1.4 km/h 10.1 km/h 64 % 0.0 mm
06:37 4.3 °C -2.0 °C 1009.0 hPa Calm   9.3 km/h 64 % 0.0 mm
06:42 4.1 °C -2.0 °C 1009.0 hPa West 6.1 km/h 6.1 km/h 65 % 0.0 mm
06:47 4.1 °C -2.0 °C 1009.0 hPa West 4.0 km/h 6.1 km/h 65 % 0.0 mm
06:52 4.0 °C -2.0 °C 1009.0 hPa West 2.6 km/h 5.8 km/h 66 % 0.0 mm
06:57 3.8 °C -2.0 °C 1009.0 hPa WNW 5.5 km/h 6.1 km/h 66 % 0.0 mm
07:02 3.8 °C -2.0 °C 1009.0 hPa West 4.0 km/h 6.4 km/h 66 % 0.0 mm
07:08 3.7 °C -2.0 °C 1009.0 hPa West 1.8 km/h 8.7 km/h 67 % 0.0 mm
07:13 3.6 °C -2.0 °C 1009.0 hPa West 3.2 km/h 8.7 km/h 67 % 0.0 mm
07:18 3.5 °C -2.0 °C 1009.0 hPa West 5.0 km/h 6.4 km/h 67 % 0.0 mm
07:23 3.4 °C -2.0 °C 1010.0 hPa West 4.3 km/h 6.1 km/h 68 % 0.0 mm
07:28 3.4 °C -2.0 °C 1010.0 hPa West 5.8 km/h 6.9 km/h 68 % 0.0 mm
07:33 3.3 °C -2.0 °C 1010.0 hPa West 5.8 km/h 6.9 km/h 69 % 0.0 mm
07:38 3.3 °C -2.0 °C 1010.0 hPa West 5.8 km/h 6.4 km/h 69 % 0.0 mm
07:43 3.4 °C -2.0 °C 1010.0 hPa NW 3.5 km/h 6.4 km/h 69 % 0.0 mm
07:48 3.6 °C -1.0 °C 1010.0 hPa West 7.9 km/h 9.0 km/h 70 % 0.0 mm
07:53 4.1 °C -1.0 °C 1010.0 hPa West 5.0 km/h 9.0 km/h 70 % 0.0 mm
07:58 4.5 °C 0.0 °C 1010.0 hPa West 6.1 km/h 7.9 km/h 70 % 0.0 mm
08:03 4.8 °C 0.0 °C 1010.0 hPa WSW 8.7 km/h 9.0 km/h 70 % 0.0 mm
08:08 5.0 °C 0.0 °C 1010.0 hPa West 9.0 km/h 10.5 km/h 69 % 0.0 mm
08:13 5.3 °C 0.0 °C 1010.0 hPa West 11.9 km/h 13.0 km/h 69 % 0.0 mm
08:18 5.5 °C 1.0 °C 1010.0 hPa West 9.0 km/h 13.0 km/h 69 % 0.0 mm
08:23 5.8 °C 1.0 °C 1010.0 hPa West 9.0 km/h 13.7 km/h 69 % 0.0 mm
08:28 6.1 °C 1.0 °C 1010.0 hPa WSW 6.1 km/h 13.7 km/h 68 % 0.0 mm
08:33 6.2 °C 1.0 °C 1010.0 hPa West 11.6 km/h 14.3 km/h 68 % 0.0 mm
08:38 6.6 °C 1.0 °C 1010.0 hPa WSW 12.2 km/h 14.3 km/h 67 % 0.0 mm
08:43 7.0 °C 1.0 °C 1010.0 hPa WSW 9.7 km/h 14.0 km/h 66 % 0.0 mm
08:48 7.1 °C 1.0 °C 1010.0 hPa West 7.9 km/h 14.0 km/h 64 % 0.0 mm
08:52 7.3 °C 1.0 °C 1010.0 hPa West 9.3 km/h 17.2 km/h 63 % 0.0 mm
08:57 7.7 °C 1.0 °C 1010.0 hPa WSW 9.3 km/h 17.2 km/h 62 % 0.0 mm
09:02 7.9 °C 1.0 °C 1010.0 hPa NNW 9.3 km/h 14.3 km/h 61 % 0.0 mm
09:07 8.1 °C 1.0 °C 1011.1 hPa NNW 11.9 km/h 14.3 km/h 59 % 0.0 mm
09:12 8.3 °C 1.0 °C 1011.1 hPa NNW 10.5 km/h 14.0 km/h 57 % 0.0 mm
09:17 8.6 °C 1.0 °C 1011.1 hPa NNW 6.9 km/h 13.7 km/h 56 % 0.0 mm
09:22 8.8 °C 1.0 °C 1011.1 hPa WNW 9.0 km/h 19.1 km/h 55 % 0.0 mm
09:27 8.8 °C 0.0 °C 1011.1 hPa WSW 10.5 km/h 19.5 km/h 52 % 0.0 mm
09:32 9.3 °C 0.0 °C 1011.1 hPa North 4.0 km/h 19.5 km/h 51 % 0.0 mm
09:37 9.6 °C 0.0 °C 1011.1 hPa NNW 10.5 km/h 16.6 km/h 51 % 0.0 mm
09:42 8.9 °C -1.0 °C 1011.1 hPa WSW 5.0 km/h 17.7 km/h 48 % 0.0 mm
09:47 8.8 °C -1.0 °C 1011.1 hPa WNW 13.7 km/h 21.2 km/h 49 % 0.0 mm
09:52 8.9 °C -1.0 °C 1011.1 hPa North 5.0 km/h 21.2 km/h 49 % 0.0 mm
09:57 9.3 °C -1.0 °C 1011.1 hPa West 6.1 km/h 11.1 km/h 49 % 0.0 mm
10:02 9.4 °C -1.0 °C 1011.1 hPa West 8.7 km/h 25.3 km/h 49 % 0.0 mm
10:07 8.8 °C -1.0 °C 1011.1 hPa West 6.9 km/h 25.3 km/h 49 % 0.0 mm
10:12 8.7 °C -1.0 °C 1011.1 hPa WNW 9.7 km/h 23.3 km/h 49 % 0.0 mm
10:13 8.8 °C -1.0 °C 1011.1 hPa NNW 7.9 km/h 23.3 km/h 50 % 0.0 mm
10:18 8.7 °C -1.0 °C 1011.1 hPa NW 13.7 km/h 23.3 km/h 51 % 0.0 mm
10:23 8.4 °C -1.0 °C 1011.1 hPa WNW 13.0 km/h 16.9 km/h 51 % 0.0 mm
10:28 9.2 °C 0.0 °C 1011.1 hPa NNW 6.4 km/h 15.8 km/h 52 % 0.0 mm
10:33 8.9 °C 0.0 °C 1011.1 hPa NNE 14.0 km/h 19.1 km/h 51 % 0.0 mm
10:38 8.4 °C -1.0 °C 1011.1 hPa NW 16.6 km/h 21.9 km/h 51 % 0.0 mm
10:43 8.3 °C -1.0 °C 1011.1 hPa North 7.9 km/h 21.9 km/h 52 % 0.0 mm
10:48 8.1 °C -1.0 °C 1011.1 hPa North 12.2 km/h 21.6 km/h 52 % 0.0 mm
10:52 8.5 °C 0.0 °C 1011.1 hPa North 17.7 km/h 21.6 km/h 53 % 0.0 mm
10:57 8.6 °C 0.0 °C 1011.1 hPa West 12.6 km/h 21.6 km/h 53 % 0.0 mm
11:02 9.2 °C 1.0 °C 1011.1 hPa NNW 16.3 km/h 20.1 km/h 54 % 0.0 mm
11:07 9.0 °C 0.0 °C 1011.1 hPa NE 5.0 km/h 20.1 km/h 53 % 0.0 mm
11:12 9.1 °C 0.0 °C 1011.1 hPa North 8.7 km/h 16.9 km/h 53 % 0.0 mm
11:17 9.8 °C 1.0 °C 1011.1 hPa NNW 9.3 km/h 20.1 km/h 53 % 0.0 mm
11:22 9.2 °C 0.0 °C 1011.1 hPa North 9.7 km/h 20.1 km/h 52 % 0.0 mm
11:27 8.8 °C 1.0 °C 1011.1 hPa WNW 10.1 km/h 17.7 km/h 54 % 0.0 mm
11:32 10.1 °C 1.0 °C 1011.1 hPa North 5.8 km/h 17.7 km/h 54 % 0.0 mm
11:37 11.0 °C 2.0 °C 1011.1 hPa NNW 6.9 km/h 13.0 km/h 53 % 0.0 mm
11:42 11.1 °C 2.0 °C 1011.1 hPa North 16.3 km/h 17.7 km/h 52 % 0.0 mm
11:47 10.9 °C 2.0 °C 1011.1 hPa NW 4.7 km/h 17.7 km/h 52 % 0.0 mm
11:53 10.5 °C 1.0 °C 1011.1 hPa NNW 13.7 km/h 19.5 km/h 51 % 0.0 mm
11:58 11.1 °C 1.0 °C 1011.1 hPa WNW 6.9 km/h 19.5 km/h 50 % 0.0 mm
12:03 10.1 °C 0.0 °C 1011.1 hPa NNW 13.7 km/h 16.9 km/h 50 % 0.0 mm
12:08 11.2 °C 1.0 °C 1010.0 hPa WNW 8.7 km/h 19.5 km/h 50 % 0.0 mm
12:13 11.3 °C 1.0 °C 1010.0 hPa WNW 13.7 km/h 19.5 km/h 50 % 0.0 mm
12:18 10.1 °C 0.0 °C 1010.0 hPa NNE 13.7 km/h 20.1 km/h 50 % 0.0 mm
12:23 11.1 °C 1.0 °C 1010.0 hPa NNE 7.9 km/h 20.1 km/h 50 % 0.0 mm
12:28 11.2 °C 1.0 °C 1010.0 hPa North 16.6 km/h 24.5 km/h 49 % 0.0 mm
12:33 11.9 °C 2.0 °C 1010.0 hPa NNE 7.9 km/h 24.5 km/h 49 % 0.0 mm
12:35 12.1 °C 2.0 °C 1010.0 hPa NNE 6.9 km/h 24.5 km/h 48 % 0.0 mm
12:40 10.2 °C 0.0 °C 1011.1 hPa NNE 23.0 km/h 23.8 km/h 48 % 0.0 mm
12:45 9.6 °C -1.0 °C 1011.1 hPa NNE 10.5 km/h 23.8 km/h 48 % 0.0 mm
12:50 10.8 °C 0.0 °C 1011.1 hPa North 12.6 km/h 23.0 km/h 48 % 0.0 mm
12:55 11.1 °C 1.0 °C 1011.1 hPa North 5.0 km/h 19.5 km/h 48 % 0.0 mm
13:00 10.0 °C 0.0 °C 1011.1 hPa NNW 14.0 km/h 19.5 km/h 48 % 0.0 mm
13:05 10.3 °C 0.0 °C 1011.1 hPa NNW 9.3 km/h 17.2 km/h 49 % 0.0 mm
13:10 11.6 °C 1.0 °C 1011.1 hPa NNW 10.8 km/h 13.7 km/h 49 % 0.0 mm
13:15 12.3 °C 2.0 °C 1011.1 hPa NW 10.1 km/h 20.1 km/h 48 % 0.0 mm
13:21 12.0 °C 2.0 °C 1011.1 hPa North 6.4 km/h 20.1 km/h 48 % 0.0 mm
13:26 12.8 °C 2.0 °C 1011.1 hPa NNW 15.1 km/h 23.8 km/h 46 % 0.0 mm
13:31 13.4 °C 2.0 °C 1011.1 hPa WNW 6.9 km/h 23.8 km/h 46 % 0.0 mm
13:36 12.6 °C 1.0 °C 1011.1 hPa NNW 12.2 km/h 17.7 km/h 45 % 0.0 mm
13:41 11.3 °C 0.0 °C 1011.1 hPa NNW 23.3 km/h 23.3 km/h 45 % 0.0 mm
13:46 12.5 °C 1.0 °C 1011.1 hPa WNW 8.7 km/h 23.3 km/h 45 % 0.0 mm
13:51 13.1 °C 2.0 °C 1011.1 hPa NW 10.8 km/h 23.3 km/h 46 % 0.0 mm
13:56 13.2 °C 2.0 °C 1011.1 hPa North 9.7 km/h 23.3 km/h 46 % 0.0 mm
14:01 13.4 °C 2.0 °C 1011.1 hPa NW 7.9 km/h 16.9 km/h 45 % 0.0 mm
14:06 13.8 °C 2.0 °C 1011.1 hPa North 10.5 km/h 13.0 km/h 45 % 0.0 mm
14:11 13.6 °C 2.0 °C 1011.1 hPa NNE 8.7 km/h 16.6 km/h 45 % 0.0 mm
14:16 13.4 °C 2.0 °C 1011.1 hPa NNW 16.3 km/h 18.0 km/h 44 % 0.0 mm
14:21 13.3 °C 2.0 °C 1011.1 hPa NNE 11.9 km/h 18.0 km/h 44 % 0.0 mm
14:26 12.6 °C 1.0 °C 1011.1 hPa NE 13.0 km/h 25.3 km/h 45 % 0.0 mm
14:31 11.9 °C 1.0 °C 1011.1 hPa NE 16.3 km/h 25.3 km/h 45 % 0.0 mm
14:36 12.7 °C 2.0 °C 1011.1 hPa North 13.7 km/h 20.1 km/h 46 % 0.0 mm
14:41 11.9 °C 1.0 °C 1011.1 hPa NW 9.0 km/h 18.0 km/h 45 % 0.0 mm
14:46 11.4 °C 0.0 °C 1011.1 hPa NNE 17.7 km/h 18.0 km/h 45 % 0.0 mm
14:51 11.1 °C 0.0 °C 1011.1 hPa North 19.1 km/h 19.1 km/h 45 % 0.0 mm
14:56 11.8 °C 0.0 °C 1011.1 hPa North 6.4 km/h 19.1 km/h 45 % 0.0 mm
15:01 12.2 °C 1.0 °C 1011.1 hPa North 13.7 km/h 17.7 km/h 45 % 0.0 mm
15:06 12.8 °C 2.0 °C 1012.1 hPa NE 21.6 km/h 23.0 km/h 46 % 0.0 mm
15:11 11.2 °C 0.0 °C 1012.1 hPa North 9.7 km/h 23.0 km/h 45 % 0.0 mm
15:17 10.6 °C -1.0 °C 1012.1 hPa North 12.2 km/h 17.7 km/h 44 % 0.0 mm
15:22 11.0 °C 0.0 °C 1011.1 hPa WNW 10.1 km/h 16.6 km/h 45 % 0.0 mm
15:27 12.0 °C 0.0 °C 1011.1 hPa North 11.9 km/h 18.3 km/h 43 % 0.0 mm
15:32 12.2 °C 0.0 °C 1011.1 hPa NW 4.7 km/h 18.3 km/h 43 % 0.0 mm
15:37 12.3 °C 0.0 °C 1012.1 hPa North 5.8 km/h 18.0 km/h 43 % 0.0 mm
15:42 12.3 °C 1.0 °C 1012.1 hPa NNW 7.2 km/h 18.0 km/h 44 % 0.0 mm
15:47 12.8 °C 1.0 °C 1012.1 hPa NW 14.3 km/h 17.7 km/h 43 % 0.0 mm
15:52 11.2 °C -1.0 °C 1010.0 hPa NNW 8.7 km/h 16.3 km/h 43 % 0.0 mm
15:57 12.2 °C 0.0 °C 1010.0 hPa NNW 16.6 km/h 20.1 km/h 43 % 0.0 mm
16:02 12.9 °C 1.0 °C 1010.0 hPa NW 13.7 km/h 20.1 km/h 44 % 0.0 mm
16:07 12.6 °C 1.0 °C 1011.1 hPa NNW 12.6 km/h 22.7 km/h 43 % 0.0 mm
16:12 12.8 °C 1.0 °C 1011.1 hPa NNE 12.2 km/h 22.7 km/h 43 % 0.0 mm
16:17 13.0 °C 1.0 °C 1011.1 hPa North 11.6 km/h 23.3 km/h 43 % 0.0 mm
16:22 13.3 °C 1.0 °C 1011.1 hPa NE 9.3 km/h 23.3 km/h 43 % 0.0 mm
16:27 13.6 °C 1.0 °C 1011.1 hPa NNE 17.7 km/h 17.7 km/h 42 % 0.0 mm
16:32 13.4 °C 1.0 °C 1011.1 hPa North 14.8 km/h 21.2 km/h 41 % 0.0 mm
16:37 13.4 °C 1.0 °C 1010.0 hPa NW 9.7 km/h 21.2 km/h 41 % 0.0 mm
16:42 13.6 °C 1.0 °C 1010.0 hPa North 9.7 km/h 20.9 km/h 40 % 0.0 mm
16:47 13.7 °C 1.0 °C 1010.0 hPa WNW 13.0 km/h 20.1 km/h 41 % 0.0 mm
16:52 13.4 °C 1.0 °C 1011.1 hPa NNE 17.2 km/h 17.2 km/h 41 % 0.0 mm
16:57 13.5 °C 1.0 °C 1011.1 hPa NNW 13.0 km/h 19.8 km/h 41 % 0.0 mm
17:02 13.7 °C 1.0 °C 1011.1 hPa NE 16.9 km/h 19.8 km/h 41 % 0.0 mm
17:07 12.3 °C 0.0 °C 1011.1 hPa NNW 12.6 km/h 24.5 km/h 41 % 0.0 mm
17:12 12.0 °C -1.0 °C 1011.1 hPa North 6.4 km/h 24.5 km/h 41 % 0.0 mm
17:14 12.4 °C 0.0 °C 1011.1 hPa NW 6.1 km/h 23.3 km/h 41 % 0.0 mm
17:19 12.6 °C 0.0 °C 1011.1 hPa North 12.6 km/h 20.1 km/h 41 % 0.0 mm
17:24 12.5 °C 0.0 °C 1011.1 hPa NE 10.1 km/h 20.1 km/h 40 % 0.0 mm
17:29 12.7 °C 0.0 °C 1011.1 hPa North 15.4 km/h 21.2 km/h 41 % 0.0 mm
17:34 12.4 °C -1.0 °C 1011.1 hPa NNW 10.1 km/h 21.2 km/h 40 % 0.0 mm
17:39 12.5 °C 0.0 °C 1011.1 hPa North 19.8 km/h 21.6 km/h 40 % 0.0 mm
17:44 12.2 °C -1.0 °C 1011.1 hPa NNW 12.2 km/h 21.6 km/h 39 % 0.0 mm
17:49 12.2 °C -1.0 °C 1011.1 hPa NNW 14.0 km/h 20.1 km/h 39 % 0.0 mm
17:55 12.4 °C -1.0 °C 1011.1 hPa NNW 11.9 km/h 20.1 km/h 39 % 0.0 mm
18:00 12.1 °C -1.0 °C 1011.1 hPa WNW 15.4 km/h 19.5 km/h 39 % 0.0 mm
18:05 12.0 °C -2.0 °C 1011.1 hPa NNW 9.0 km/h 19.5 km/h 38 % 0.0 mm
18:10 12.6 °C -1.0 °C 1010.0 hPa NNW 8.7 km/h 15.8 km/h 39 % 0.0 mm
18:30 0.0 °C -1.0 °C 0.0 hPa Calm     0 % 0.0 mm
18:35 11.9 °C -2.0 °C 1011.1 hPa NW 8.7 km/h 12.2 km/h 37 % 0.0 mm
18:40 11.8 °C -3.0 °C 1010.0 hPa North 2.1 km/h 13.7 km/h 37 % 0.0 mm
18:45 11.8 °C -3.0 °C 1010.0 hPa NNE 5.8 km/h 13.7 km/h 37 % 0.0 mm
18:50 11.7 °C -3.0 °C 1010.0 hPa NNW 10.1 km/h 16.9 km/h 37 % 0.0 mm
18:55 11.7 °C -3.0 °C 1011.1 hPa NW 7.9 km/h 17.2 km/h 37 % 0.0 mm
19:00 11.7 °C -3.0 °C 1011.1 hPa NNE 5.5 km/h 17.2 km/h 37 % 0.0 mm
19:05 11.8 °C -3.0 °C 1011.1 hPa WNW 5.8 km/h 13.7 km/h 37 % 0.0 mm
19:10 11.6 °C -3.0 °C 1011.1 hPa WNW 4.0 km/h 13.7 km/h 37 % 0.0 mm
19:15 11.6 °C -2.0 °C 1011.1 hPa NNE 12.6 km/h 13.0 km/h 38 % 0.0 mm
19:20 11.3 °C -3.0 °C 1011.1 hPa NNW 11.6 km/h 12.6 km/h 37 % 0.0 mm
19:25 11.3 °C -3.0 °C 1010.0 hPa NNW 8.7 km/h 11.9 km/h 38 % 0.0 mm
19:30 11.1 °C -3.0 °C 1010.0 hPa North 8.7 km/h 14.0 km/h 38 % 0.0 mm
19:35 10.9 °C -3.0 °C 1010.0 hPa North 11.1 km/h 14.0 km/h 38 % 0.0 mm
19:40 10.6 °C -3.0 °C 1011.1 hPa NNW 9.3 km/h 14.0 km/h 38 % 0.0 mm
19:45 10.3 °C -3.0 °C 1011.1 hPa North 7.9 km/h 12.6 km/h 38 % 0.0 mm
19:48 10.1 °C -4.0 °C 1011.1 hPa NNW 11.6 km/h 12.6 km/h 38 % 0.0 mm
19:53 9.8 °C -4.0 °C 1011.1 hPa NNW 9.0 km/h 12.6 km/h 38 % 0.0 mm
19:58 9.3 °C -4.0 °C 1011.1 hPa NNE 4.7 km/h 12.6 km/h 38 % 0.0 mm
20:04 9.0 °C -5.0 °C 1011.1 hPa NNW 5.5 km/h 11.9 km/h 38 % 0.0 mm
20:09 8.8 °C -4.0 °C 1011.1 hPa Calm   9.7 km/h 39 % 0.0 mm
20:14 8.5 °C -4.0 °C 1011.1 hPa NNW 5.5 km/h 9.7 km/h 39 % 0.0 mm
20:19 8.3 °C -5.0 °C 1011.1 hPa WNW 4.3 km/h 9.3 km/h 39 % 0.0 mm
20:24 8.2 °C -5.0 °C 1011.1 hPa West 3.2 km/h 10.5 km/h 39 % 0.0 mm
20:29 8.0 °C -5.0 °C 1011.1 hPa North 3.2 km/h 10.5 km/h 39 % 0.0 mm
20:34 7.9 °C -5.0 °C 1011.1 hPa NNW 1.8 km/h 9.3 km/h 40 % 0.0 mm
20:39 7.7 °C -5.0 °C 1010.0 hPa Calm   11.6 km/h 40 % 0.0 mm
20:44 7.5 °C -5.0 °C 1010.0 hPa WNW 3.5 km/h 11.6 km/h 41 % 0.0 mm
20:49 7.4 °C -5.0 °C 1010.0 hPa Calm   9.0 km/h 41 % 0.0 mm
20:54 7.3 °C -5.0 °C 1011.1 hPa Calm   9.0 km/h 41 % 0.0 mm
20:59 7.0 °C -5.0 °C 1011.1 hPa WNW 4.3 km/h 6.4 km/h 42 % 0.0 mm
21:04 6.8 °C -5.0 °C 1011.1 hPa North 4.7 km/h 6.4 km/h 42 % 0.0 mm
21:09 6.6 °C -5.0 °C 1011.1 hPa NW 4.0 km/h 6.1 km/h 42 % 0.0 mm
21:14 6.4 °C -5.0 °C 1011.1 hPa NNW 4.3 km/h 5.0 km/h 43 % 0.0 mm
21:19 6.1 °C -6.0 °C 1011.1 hPa Calm   5.0 km/h 43 % 0.0 mm
21:24 5.9 °C -6.0 °C 1011.1 hPa Calm   3.2 km/h 43 % 0.0 mm
21:29 5.8 °C -5.0 °C 1011.1 hPa Calm     44 % 0.0 mm
21:34 5.6 °C -5.0 °C 1011.1 hPa Calm   2.1 km/h 44 % 0.0 mm
21:40 5.3 °C -6.0 °C 1011.1 hPa Calm   2.6 km/h 44 % 0.0 mm
21:45 5.0 °C -6.0 °C 1011.1 hPa Calm   2.6 km/h 44 % 0.0 mm
21:50 4.7 °C -6.0 °C 1011.1 hPa Calm     45 % 0.0 mm
21:55 4.4 °C -6.0 °C 1011.1 hPa WNW 1.8 km/h 1.8 km/h 45 % 0.0 mm
22:00 4.1 °C -6.0 °C 1011.1 hPa Calm   1.8 km/h 46 % 0.0 mm
22:05 3.9 °C -6.0 °C 1010.0 hPa Calm     47 % 0.0 mm
22:06 3.9 °C -6.0 °C 1010.0 hPa Calm     47 % 0.0 mm
22:11 3.6 °C -6.0 °C 1010.0 hPa Calm     47 % 0.0 mm
22:16 3.3 °C -7.0 °C 1010.0 hPa Calm     47 % 0.0 mm
22:21 3.1 °C -7.0 °C 1011.1 hPa Calm     48 % 0.0 mm
22:26 2.8 °C -6.0 °C 1011.1 hPa Calm     49 % 0.0 mm
22:31 2.6 °C -6.0 °C 1011.1 hPa Calm     50 % 0.0 mm
22:36 2.4 °C -7.0 °C 1011.1 hPa Calm     50 % 0.0 mm
22:41 2.3 °C -6.0 °C 1011.1 hPa Calm     51 % 0.0 mm
22:46 2.0 °C -7.0 °C 1011.1 hPa Calm     51 % 0.0 mm
22:51 1.8 °C -7.0 °C 1011.1 hPa Calm     52 % 0.0 mm
22:56 1.7 °C -7.0 °C 1011.1 hPa Calm     53 % 0.0 mm
23:01 1.7 °C -6.0 °C 1011.1 hPa Calm     54 % 0.0 mm
23:06 1.6 °C -6.0 °C 1011.1 hPa Calm     54 % 0.0 mm
23:11 1.5 °C -6.0 °C 1011.1 hPa Calm     54 % 0.0 mm
23:16 1.3 °C -7.0 °C 1011.1 hPa WNW 3.2 km/h 4.0 km/h 53 % 0.0 mm
23:21 1.1 °C -7.0 °C 1011.1 hPa Calm   4.0 km/h 54 % 0.0 mm
23:27 1.0 °C -7.0 °C 1011.1 hPa Calm   3.5 km/h 54 % 0.0 mm
23:32 0.9 °C -7.0 °C 1011.1 hPa Calm     54 % 0.0 mm
23:37 1.0 °C -7.0 °C 1012.1 hPa Calm     54 % 0.0 mm
23:42 1.2 °C -6.0 °C 1012.1 hPa WNW 4.3 km/h 6.1 km/h 56 % 0.0 mm
23:47 1.6 °C -6.0 °C 1012.1 hPa West 6.1 km/h 7.9 km/h 57 % 0.0 mm
23:52 1.9 °C -5.0 °C 1011.1 hPa WNW 3.2 km/h 8.7 km/h 58 % 0.0 mm
23:57 2.0 °C -5.0 °C 1011.1 hPa West 6.4 km/h 8.7 km/h 59 % 0.0 mm
Le Gheer Warneton
Courtoisie de Weather Underground - 2.25 mb

Mise a jour : 18/12/2017 21:33:12
Généré par Cumulus 1.9.4 (1099)